Aviation Digital Data Service (ADDS)

Output produced by METARs form (1301 UTC 21 February 2018)
found at http://www.aviationweather.gov/adds/metars/
 
TAF MNBL 201512Z 2018/2118 09012G25KT 9999 BKN016 
     TEMPO 2018/2200 7000 -RA 
     BECMG 2102/2104 08008KT
       
TAF MNMG 201512Z 2018/2118 09014G29KT 9999 SCT021 
     BECMG 2102/2104 09008KT FEW020 
     FM211300 10014KT
       
TAF MNPC 201512Z 2018/2118 08012G24KT 9999 BKN020 
     TEMPO 2019/2101 7000 RA 
     BECMG 2103/2105 09006KT SCT016